Corbridge, United Kingdom
Current Conditions -  °F | °C
As of 12:50 PM on Friday 28 Nov 2014 (Local Time) from EGNT Reporting Station
Haze Haze  
Wind Chill: 45°   Ceiling: 400
Heat Index: 48°   Visibility: 1.1mi
Dew Point: 48°   Wind: 7mph
Humidity: 100%   Direction: 90°E
Pressure: 29.77"   Gusts: NA
Location:  54.97°N, 2.02°W
Report Text: EGNT 281250Z 09006KT 060V120 1800 BR OVC004 09/09 Q1008
Loading
Personal Weather Stations






























Interactive Weather Map New forecast layout! Learn more

10-Day Weather Forecast

Advertisements
Track Severe Weather on mobile